Time;durP1;ratioP1;P1;durP2;ratioP2;P2;SDS_P1;SDS_P2;PMS_P1;PMS_P2;Temp;Humidity;BMP_temperature;BMP_pressure;BME280_temperature;BME280_humidity;BME280_pressure;Samples;Min_cycle;Max_cycle;Signal;HPM_P1;HPM_P2
2022/07/03 00:02:08;;;;;;;5.63;1.50;;;20.30;55.50;;;;;;5114299;28;20016;-37
2022/07/03 00:04:33;;;;;;;4.68;1.80;;;20.30;55.70;;;;;;5113932;28;20027;-37
2022/07/03 00:06:59;;;;;;;4.13;1.92;;;20.20;56.00;;;;;;5113693;28;20023;-37
2022/07/03 00:09:25;;;;;;;2.08;1.65;;;20.20;56.10;;;;;;5113147;28;20039;-37
2022/07/03 00:11:51;;;;;;;5.03;1.40;;;20.20;56.30;;;;;;5112424;28;20024;-38
2022/07/03 00:14:17;;;;;;;2.90;1.40;;;20.10;56.60;;;;;;5112004;28;20044;-37
2022/07/03 00:16:43;;;;;;;2.70;1.58;;;20.00;56.70;;;;;;5112382;28;20031;-37
2022/07/03 00:19:09;;;;;;;4.85;1.85;;;20.00;56.70;;;;;;5114056;28;20032;-37
2022/07/03 00:21:41;;;;;;;2.83;1.52;;;20.00;56.00;;;;;;5113757;28;20016;-37
2022/07/03 00:24:45;;;;;;;8.60;1.92;;;20.10;55.80;;;;;;5113410;28;20442;-37
2022/07/03 00:27:12;;;;;;;10.25;1.55;;;20.10;56.40;;;;;;5107650;28;20031;-38
2022/07/03 00:29:44;;;;;;;3.58;2.33;;;20.00;56.90;;;;;;5113756;28;20092;-38
2022/07/03 00:32:13;;;;;;;3.45;1.50;;;19.90;58.10;;;;;;5112591;28;20027;-38
2022/07/03 00:34:40;;;;;;;2.67;1.70;;;19.80;57.80;;;;;;5112141;28;20031;-37
2022/07/03 00:37:09;;;;;;;4.57;1.95;;;19.90;56.70;;;;;;5113446;28;20377;-37
2022/07/03 00:39:41;;;;;;;3.17;1.50;;;20.00;56.80;;;;;;5113780;28;20019;-38
2022/07/03 00:42:08;;;;;;;4.93;1.70;;;19.90;57.80;;;;;;5113425;28;20111;-39
2022/07/03 00:44:50;;;;;;;4.72;1.80;;;19.80;57.40;;;;;;5113391;28;20037;-38
2022/07/03 00:47:18;;;;;;;4.32;1.67;;;19.80;58.00;;;;;;5114420;28;20028;-37
2022/07/03 00:49:47;;;;;;;2.42;1.85;;;19.80;59.20;;;;;;5112509;28;20090;-38
2022/07/03 00:52:14;;;;;;;3.50;1.08;;;19.70;60.60;;;;;;5113791;28;20030;-37
2022/07/03 00:54:50;;;;;;;4.20;1.27;;;19.60;61.80;;;;;;5113305;28;20471;-38
2022/07/03 00:57:16;;;;;;;4.43;1.35;;;19.30;62.40;;;;;;5113468;28;20031;-37
2022/07/03 00:59:43;;;;;;;3.25;1.65;;;19.30;62.90;;;;;;5113117;28;20098;-41
2022/07/03 01:02:37;;;;;;;2.58;1.40;;;19.20;63.50;;;;;;5115872;28;20543;-39
2022/07/03 01:05:34;;;;;;;5.75;2.13;;;19.10;63.80;;;;;;5115188;28;20039;-38
2022/07/03 01:08:37;;;;;;;4.72;1.48;;;18.90;64.30;;;;;;5117378;28;20024;-37
2022/07/03 01:11:21;;;;;;;3.85;1.90;;;18.80;64.60;;;;;;5116017;28;20027;-37
2022/07/03 01:13:53;;;;;;;4.18;1.23;;;18.90;65.40;;;;;;5116776;28;20050;-37
2022/07/03 01:16:23;;;;;;;2.72;1.50;;;18.80;66.00;;;;;;5115479;28;20016;-37
2022/07/03 01:18:49;;;;;;;;;;;18.80;66.60;;;;;;5117656;28;20024;-36
2022/07/03 01:21:41;;;;;;;1.60;1.40;;;18.70;66.90;;;;;;5116180;28;19918;-37
2022/07/03 01:24:22;;;;;;;3.08;1.60;;;18.50;67.20;;;;;;5117028;28;20378;-37
2022/07/03 01:26:54;;;;;;;2.78;1.58;;;18.40;67.50;;;;;;5115508;28;20038;-40
2022/07/03 01:29:31;;;;;;;2.80;1.92;;;18.40;67.80;;;;;;5116991;28;20051;-50
2022/07/03 01:31:58;;;;;;;2.38;1.60;;;18.50;67.70;;;;;;5116479;28;20020;-48
2022/07/03 01:34:31;;;;;;;3.42;1.50;;;18.60;67.20;;;;;;5116675;28;20024;-50
2022/07/03 01:37:00;;;;;;;5.57;1.88;;;18.60;66.80;;;;;;5116531;28;20115;-48
2022/07/03 01:39:27;;;;;;;5.07;2.42;;;18.70;67.20;;;;;;5115059;28;20065;-50
2022/07/03 01:41:55;;;;;;;9.35;2.00;;;18.60;66.70;;;;;;5116427;28;20027;-48
2022/07/03 01:44:25;;;;;;;5.78;2.25;;;18.70;66.20;;;;;;5115607;28;20019;-50
2022/07/03 01:46:53;;;;;;;3.33;1.70;;;18.80;66.30;;;;;;5116525;28;20030;-50
2022/07/03 01:49:20;;;;;;;4.50;2.05;;;18.70;66.80;;;;;;5115162;28;20505;-47
2022/07/03 01:51:50;;;;;;;6.43;2.28;;;18.70;67.10;;;;;;5114889;28;20032;-47
2022/07/03 01:54:18;;;;;;;3.80;1.60;;;18.70;67.20;;;;;;5115007;28;20027;-49
2022/07/03 01:56:44;;;;;;;4.45;1.80;;;18.70;67.40;;;;;;5115615;28;20026;-49
2022/07/03 01:59:14;;;;;;;4.93;1.67;;;18.60;67.60;;;;;;5098624;28;20019;-50
2022/07/03 02:02:10;;;;;;;3.78;1.60;;;18.60;67.80;;;;;;5115547;28;20023;-49
2022/07/03 02:04:58;;;;;;;4.78;2.13;;;18.50;68.20;;;;;;5115819;28;20031;-48
2022/07/03 02:07:49;;;;;;;4.28;2.17;;;18.30;68.70;;;;;;5099597;28;20122;-49
2022/07/03 02:10:28;;;;;;;1.73;1.63;;;18.40;69.00;;;;;;5107528;28;20487;-48
2022/07/03 02:13:06;;;;;;;2.42;1.55;;;18.40;69.10;;;;;;5116702;28;20026;-49
2022/07/03 02:15:34;;;;;;;2.72;1.80;;;18.40;69.10;;;;;;5116256;27;20044;-48
2022/07/03 02:18:21;;;;;;;3.22;1.70;;;18.40;69.20;;;;;;5115664;28;20027;-49
2022/07/03 02:21:01;;;;;;;1.88;1.42;;;18.40;69.60;;;;;;5115819;28;20076;-49
2022/07/03 02:23:31;;;;;;;4.40;2.00;;;18.30;69.60;;;;;;5115965;28;20418;-47
2022/07/03 02:26:01;;;;;;;4.10;1.70;;;18.30;69.90;;;;;;5115717;28;20034;-48
2022/07/03 02:29:02;;;;;;;4.13;2.08;;;18.20;69.60;;;;;;5115545;28;20429;-47
2022/07/03 02:31:32;;;;;;;3.22;2.33;;;18.20;68.80;;;;;;5114284;28;20103;-48
2022/07/03 02:33:59;;;;;;;3.42;2.38;;;18.00;69.90;;;;;;5115313;28;20042;-49
2022/07/03 02:36:29;;;;;;;2.92;2.00;;;18.00;70.10;;;;;;5115824;28;20035;-47
2022/07/03 02:38:56;;;;;;;5.55;3.33;;;17.90;70.30;;;;;;5115332;28;20119;-47
2022/07/03 02:41:43;;;;;;;4.25;2.00;;;17.90;70.80;;;;;;5116160;28;20052;-48
2022/07/03 02:44:25;;;;;;;5.50;1.88;;;17.80;71.20;;;;;;5115520;28;20524;-48
2022/07/03 02:47:00;;;;;;;4.18;1.98;;;17.70;71.60;;;;;;5115429;28;20016;-49
2022/07/03 02:50:01;;;;;;;8.95;1.85;;;17.80;72.10;;;;;;5115276;28;20463;-50
2022/07/03 02:52:38;;;;;;;3.97;2.10;;;17.70;71.70;;;;;;5115306;28;20019;-50
2022/07/03 02:55:45;;;;;;;3.00;1.92;;;17.80;71.50;;;;;;5114829;28;20102;-49
2022/07/03 02:58:14;;;;;;;3.30;2.15;;;17.90;71.20;;;;;;5115239;28;20066;-47
2022/07/03 20:19:05;;;;;;;3.47;1.02;;;19.40;60.00;;;;;;5071097;28;20456;-48
2022/07/03 20:21:31;;;;;;;3.83;1.80;;;19.40;60.20;;;;;;5069155;28;20032;-48
2022/07/03 20:26:42;;;;;;;3.85;1.40;;;19.50;59.80;;;;;;5070238;28;20032;-49
2022/07/03 20:29:08;;;;;;;1.52;1.23;;;19.50;59.80;;;;;;5070571;28;20353;-48
2022/07/03 20:31:33;;;;;;;4.20;1.60;;;19.50;59.90;;;;;;5070295;28;20021;-49
2022/07/03 20:33:59;;;;;;;2.50;1.40;;;19.50;59.60;;;;;;5069202;28;20035;-50
2022/07/03 20:36:25;;;;;;;1.70;1.05;;;19.40;59.30;;;;;;5070206;28;20029;-49
2022/07/03 20:38:51;;;;;;;6.05;1.50;;;19.40;59.10;;;;;;5069829;28;20063;-51
2022/07/03 20:41:17;;;;;;;3.67;1.25;;;19.40;58.60;;;;;;5071348;28;20104;-47
2022/07/03 20:43:43;;;;;;;2.60;1.10;;;19.30;58.50;;;;;;5068609;28;20112;-50
2022/07/03 20:46:08;;;;;;;1.88;1.30;;;19.30;58.50;;;;;;5068519;28;20108;-48
2022/07/03 20:48:36;;;;;;;3.58;0.93;;;19.30;58.40;;;;;;5070161;28;20062;-48
2022/07/03 20:51:02;;;;;;;1.65;0.88;;;19.40;58.40;;;;;;5069814;28;20041;-48
2022/07/03 20:53:27;;;;;;;3.35;1.02;;;19.30;58.00;;;;;;5070208;28;20037;-48
2022/07/03 20:55:53;;;;;;;2.47;1.55;;;19.30;58.10;;;;;;5069828;28;20035;-48
2022/07/03 20:58:19;;;;;;;1.70;1.20;;;19.20;58.20;;;;;;5069810;28;20163;-51
2022/07/03 21:00:44;;;;;;;2.38;0.80;;;19.10;57.90;;;;;;5068992;28;20029;-50
2022/07/03 21:03:10;;;;;;;1.20;0.90;;;19.10;57.80;;;;;;5068369;28;20538;-48
2022/07/03 21:05:36;;;;;;;3.67;1.33;;;19.00;57.30;;;;;;5069813;28;20078;-51
2022/07/03 21:08:01;;;;;;;2.15;0.70;;;19.10;57.30;;;;;;5069376;28;20471;-46
2022/07/03 21:13:11;;;;;;;2.80;0.95;;;19.00;56.80;;;;;;5069939;28;20035;-48
2022/07/03 21:15:37;;;;;;;1.08;0.75;;;18.80;57.10;;;;;;5069707;28;20024;-49
2022/07/03 21:18:03;;;;;;;4.20;0.88;;;18.80;56.70;;;;;;5070000;28;20041;-48
2022/07/03 21:20:28;;;;;;;1.38;0.90;;;18.80;56.70;;;;;;5070033;28;20024;-48
2022/07/03 21:22:54;;;;;;;1.15;0.75;;;18.70;56.30;;;;;;5069877;28;20044;-49
2022/07/03 21:25:20;;;;;;;0.93;0.73;;;18.60;56.40;;;;;;5070099;28;20024;-51
2022/07/03 21:27:45;;;;;;;4.25;1.10;;;18.60;56.40;;;;;;5070269;28;20025;-50
2022/07/03 21:30:11;;;;;;;1.50;0.90;;;18.70;56.20;;;;;;5058196;28;20068;-48
2022/07/03 21:32:37;;;;;;;1.10;0.90;;;18.50;56.30;;;;;;5056956;28;20438;-50
2022/07/03 21:35:03;;;;;;;3.40;0.60;;;18.40;56.30;;;;;;5056717;28;20020;-48
2022/07/03 21:37:28;;;;;;;2.88;1.20;;;18.40;56.30;;;;;;5056343;28;20116;-48
2022/07/03 21:39:54;;;;;;;2.00;0.77;;;18.30;56.50;;;;;;5056977;28;20457;-49
2022/07/03 21:42:20;;;;;;;3.88;0.93;;;18.30;56.20;;;;;;5056312;28;20103;-49
2022/07/03 21:44:45;;;;;;;1.52;0.80;;;18.30;56.10;;;;;;5056317;28;20025;-49
2022/07/03 21:47:11;;;;;;;0.85;0.70;;;18.30;56.20;;;;;;5056258;28;20503;-48
2022/07/03 21:49:36;;;;;;;1.50;0.70;;;18.20;56.50;;;;;;5056389;28;20054;-49
2022/07/03 21:52:03;;;;;;;4.10;0.70;;;18.20;56.90;;;;;;5055959;28;20081;-50
2022/07/03 21:54:31;;;;;;;1.25;0.68;;;18.10;56.90;;;;;;5056092;28;20112;-48
2022/07/03 21:56:57;;;;;;;2.05;1.38;;;18.00;57.30;;;;;;5056269;28;20358;-48
2022/07/03 21:59:23;;;;;;;2.00;0.98;;;18.10;57.30;;;;;;5056095;28;20017;-50
2022/07/03 22:01:48;;;;;;;0.60;0.60;;;18.10;57.40;;;;;;5055870;28;20381;-49
2022/07/03 22:04:15;;;;;;;0.40;0.40;;;18.10;58.10;;;;;;5054741;28;20039;-47
2022/07/03 22:06:41;;;;;;;2.53;0.60;;;17.90;59.00;;;;;;5055587;28;20017;-48
2022/07/03 22:09:42;;;;;;;3.42;0.80;;;17.90;59.20;;;;;;5056222;28;20574;-47
2022/07/03 22:12:43;;;;;;;2.47;1.10;;;17.90;59.20;;;;;;5055384;28;20117;-47
2022/07/03 22:14:38;;;;;;;2.53;1.10;;;17.80;59.40;;;;;;5058869;28;20029;-48
2022/07/03 22:17:04;;;;;;;1.75;0.73;;;17.70;60.00;;;;;;5055841;28;20045;-48
2022/07/03 22:19:30;;;;;;;1.30;0.70;;;17.60;60.30;;;;;;5055914;28;20013;-53
2022/07/03 22:21:55;;;;;;;1.05;0.70;;;17.60;60.80;;;;;;5055782;28;20021;-48
2022/07/03 22:24:21;;;;;;;1.25;0.90;;;17.50;60.90;;;;;;5056253;28;20028;-49
2022/07/03 22:26:47;;;;;;;4.90;0.80;;;17.50;60.60;;;;;;5056260;28;20025;-50
2022/07/03 22:29:12;;;;;;;1.35;1.25;;;17.60;60.50;;;;;;5054429;28;20021;-49
2022/07/03 22:31:53;;;;;;;1.75;0.55;;;17.50;60.50;;;;;;5055439;28;20023;-49
2022/07/03 22:34:18;;;;;;;4.40;0.90;;;17.40;61.00;;;;;;5055112;28;20032;-48
2022/07/03 22:36:44;;;;;;;2.22;0.98;;;17.30;61.10;;;;;;5053362;28;20021;-51
2022/07/03 22:39:09;;;;;;;0.95;0.52;;;17.40;61.30;;;;;;5054595;28;20385;-47
2022/07/03 22:41:35;;;;;;;4.72;0.90;;;17.30;61.40;;;;;;5053163;28;20483;-47
2022/07/03 22:44:01;;;;;;;1.30;0.60;;;17.30;61.70;;;;;;5054405;28;20096;-48
2022/07/03 22:46:26;;;;;;;3.13;0.70;;;17.40;61.90;;;;;;5054589;28;20028;-48
2022/07/03 22:48:53;;;;;;;3.15;0.75;;;17.30;62.50;;;;;;5054578;28;20055;-49
2022/07/03 22:51:19;;;;;;;1.08;0.70;;;17.30;62.80;;;;;;5054222;28;20036;-49
2022/07/03 22:53:45;;;;;;;5.20;0.80;;;17.20;62.80;;;;;;5054278;28;20043;-48
2022/07/03 22:56:10;;;;;;;2.85;0.75;;;17.10;63.20;;;;;;5054607;28;20521;-47
2022/07/03 22:58:36;;;;;;;2.40;0.70;;;17.20;63.00;;;;;;5054382;28;20025;-50
2022/07/03 23:01:01;;;;;;;3.00;0.85;;;17.10;63.00;;;;;;5053823;28;20361;-47
2022/07/03 23:03:27;;;;;;;2.40;0.98;;;17.20;63.00;;;;;;5053990;28;20040;-48
2022/07/03 23:05:54;;;;;;;2.00;1.00;;;17.20;62.90;;;;;;5054152;28;20032;-52
2022/07/03 23:08:20;;;;;;;6.63;1.05;;;17.10;62.90;;;;;;5052553;28;20025;-49
2022/07/03 23:10:46;;;;;;;1.35;0.88;;;17.10;62.80;;;;;;5054565;28;20020;-50
2022/07/03 23:13:12;;;;;;;2.90;1.05;;;17.10;62.90;;;;;;5053910;28;20388;-49
2022/07/03 23:15:38;;;;;;;3.25;0.95;;;17.10;62.90;;;;;;5052589;28;20029;-49
2022/07/03 23:18:04;;;;;;;0.95;0.90;;;17.10;63.00;;;;;;5052599;28;20493;-48
2022/07/03 23:20:29;;;;;;;2.40;0.77;;;17.00;63.30;;;;;;5053750;28;20105;-52
2022/07/03 23:22:55;;;;;;;2.88;1.25;;;16.90;63.70;;;;;;5053881;28;20056;-49
2022/07/03 23:25:20;;;;;;;3.92;1.58;;;16.90;63.90;;;;;;5052351;28;20028;-48
2022/07/03 23:27:46;;;;;;;0.75;0.73;;;16.90;64.10;;;;;;5052390;28;20091;-48
2022/07/03 23:30:12;;;;;;;1.30;1.02;;;16.80;64.10;;;;;;5053622;28;20024;-48
2022/07/03 23:32:38;;;;;;;1.27;0.90;;;16.80;64.40;;;;;;5054210;28;20025;-50
2022/07/03 23:35:03;;;;;;;3.00;1.30;;;16.80;64.90;;;;;;5053783;28;20025;-47
2022/07/03 23:37:29;;;;;;;3.03;1.17;;;16.70;65.20;;;;;;5053700;28;20025;-49
2022/07/03 23:39:55;;;;;;;1.35;0.90;;;16.70;65.30;;;;;;5053624;28;20112;-49
2022/07/03 23:42:20;;;;;;;1.30;0.93;;;16.70;65.50;;;;;;5053633;28;20025;-48
2022/07/03 23:44:47;;;;;;;4.00;1.10;;;16.60;66.00;;;;;;5053722;28;20021;-49
2022/07/03 23:47:13;;;;;;;1.45;1.02;;;16.40;66.70;;;;;;5053639;28;20393;-48
2022/07/03 23:52:23;;;;;;;10.07;1.67;;;16.30;67.70;;;;;;5053230;28;20044;-48
2022/07/03 23:54:48;;;;;;;2.97;1.02;;;16.30;67.90;;;;;;5053694;28;20465;-48
2022/07/03 23:57:14;;;;;;;2.38;1.23;;;16.20;68.20;;;;;;5053255;28;20025;-47
2022/07/03 23:59:39;;;;;;;2.47;0.68;;;16.10;68.60;;;;;;5053485;28;20021;-51
